Time;durP1;ratioP1;P1;durP2;ratioP2;P2;SDS_P1;SDS_P2;PMS_P1;PMS_P2;Temp;Humidity;BMP_temperature;BMP_pressure;BME280_temperature;BME280_humidity;BME280_pressure;Samples;Min_cycle;Max_cycle;Signal;HPM_P1;HPM_P2
2022/04/17 00:02:21;;;;;;;289.57;90.00;;;;;;;;;;5070718;28;20420;-61
2022/04/17 00:04:47;;;;;;;288.42;83.10;;;;;;;;;;5070094;28;20793;-61
2022/04/17 00:07:13;;;;;;;290.77;91.00;;;;;;;;;;5070796;28;20212;-62
2022/04/17 00:09:39;;;;;;;279.57;87.60;;;;;;;;;;5070804;28;20404;-61
2022/04/17 00:12:05;;;;;;;279.07;87.13;;;;;;;;;;5070596;28;20501;-61
2022/04/17 00:14:31;;;;;;;281.60;87.32;;;;;;;;;;5070924;28;20410;-61
2022/04/17 00:16:57;;;;;;;282.57;83.70;;;;;;;;;;5070808;28;20192;-61
2022/04/17 00:19:23;;;;;;;303.17;88.93;;;;;;;;;;5070431;28;20473;-61
2022/04/17 00:21:49;;;;;;;296.67;89.70;;;;;;;;;;5070831;28;20179;-62
2022/04/17 00:24:15;;;;;;;293.63;88.80;;;;;;;;;;5070935;28;20550;-61
2022/04/17 00:26:42;;;;;;;302.08;93.15;;;;;;;;;;5070740;28;20446;-61
2022/04/17 00:29:07;;;;;;;292.40;90.38;;;;;;;;;;5074173;28;20218;-61
2022/04/17 00:31:34;;;;;;;298.73;94.20;;;;;;;;;;5073805;28;20235;-61
2022/04/17 00:34:00;;;;;;;294.65;86.30;;;;;;;;;;5074209;28;20426;-60
2022/04/17 00:36:26;;;;;;;290.83;84.87;;;;;;;;;;5074037;28;20193;-61
2022/04/17 00:38:52;;;;;;;271.77;85.37;;;;;;;;;;5074158;28;20414;-62
2022/04/17 00:41:18;;;;;;;282.80;87.47;;;;;;;;;;5073826;28;20830;-61
2022/04/17 00:43:45;;;;;;;279.88;85.03;;;;;;;;;;5074023;28;20173;-61
2022/04/17 00:46:12;;;;;;;250.15;80.00;;;;;;;;;;5074078;28;20191;-61
2022/04/17 00:48:38;;;;;;;278.65;84.80;;;;;;;;;;5073640;28;20632;-60
2022/04/17 00:51:04;;;;;;;278.03;83.27;;;;;;;;;;5072923;28;20202;-61
2022/04/17 00:53:30;;;;;;;274.45;82.22;;;;;;;;;;5073849;28;20431;-60
2022/04/17 00:55:56;;;;;;;271.38;81.80;;;;;;;;;;5073752;28;20204;-61
2022/04/17 00:58:22;;;;;;;276.73;82.55;;;;;;;;;;5073423;28;20168;-61
2022/04/17 01:00:48;;;;;;;269.37;80.57;;;;;;;;;;5073371;28;20180;-60
2022/04/17 01:03:14;;;;;;;273.57;81.60;;;;;;;;;;5073691;28;20450;-61
2022/04/17 01:05:42;;;;;;;264.55;82.57;;;;;;;;;;5073486;28;20416;-58
2022/04/17 01:08:10;;;;;;;251.55;82.30;;;;;;;;;;5073394;28;20230;-61
2022/04/17 01:10:36;;;;;;;253.82;80.90;;;;;;;;;;5073359;28;20246;-61
2022/04/17 01:13:05;;;;;;;248.17;79.07;;;;;;;;;;5073537;28;20595;-60
2022/04/17 01:15:31;;;;;;;246.85;79.00;;;;;;;;;;5070976;28;20421;-61
2022/04/17 01:17:57;;;;;;;270.38;82.22;;;;;;;;;;5073209;28;20193;-61
2022/04/17 01:20:23;;;;;;;270.95;85.43;;;;;;;;;;5073234;28;20318;-61
2022/04/17 01:22:50;;;;;;;269.30;83.35;;;;;;;;;;5073138;28;20214;-60
2022/04/17 01:28:05;;;;;;;276.70;86.80;;;;;;;;;;5073107;28;20209;-62
2022/04/17 01:30:31;;;;;;;258.65;82.97;;;;;;;;;;5070717;28;20192;-61
2022/04/17 01:32:57;;;;;;;249.23;78.23;;;;;;;;;;5073192;28;20173;-60
2022/04/17 01:35:23;;;;;;;253.13;78.57;;;;;;;;;;5073036;28;20494;-61
2022/04/17 01:37:49;;;;;;;247.20;78.47;;;;;;;;;;5072912;28;20456;-60
2022/04/17 01:40:15;;;;;;;248.70;80.00;;;;;;;;;;5071665;28;20908;-61
2022/04/17 01:42:41;;;;;;;236.60;76.85;;;;;;;;;;5072953;28;20254;-60
2022/04/17 01:45:08;;;;;;;233.40;76.57;;;;;;;;;;5072990;28;20173;-61
2022/04/17 01:47:34;;;;;;;227.50;80.72;;;;;;;;;;5068942;28;20200;-61
2022/04/17 01:50:00;;;;;;;216.80;70.70;;;;;;;;;;5071383;28;20642;-61
2022/04/17 01:52:26;;;;;;;215.93;73.65;;;;;;;;;;5072334;28;20962;-61
2022/04/17 01:54:53;;;;;;;217.00;79.05;;;;;;;;;;5070162;28;20208;-60
2022/04/17 01:57:19;;;;;;;211.40;74.60;;;;;;;;;;5071541;28;20618;-61
2022/04/17 01:59:45;;;;;;;210.07;74.78;;;;;;;;;;5070097;28;20438;-61
2022/04/17 02:02:11;;;;;;;210.15;75.90;;;;;;;;;;5071869;28;20195;-60
2022/04/17 02:04:37;;;;;;;207.00;69.80;;;;;;;;;;5072395;28;20607;-61
2022/04/17 02:07:04;;;;;;;229.25;73.68;;;;;;;;;;5072362;28;20533;-61
2022/04/17 02:09:30;;;;;;;239.27;87.28;;;;;;;;;;5069758;28;20239;-59
2022/04/17 02:11:56;;;;;;;226.60;72.05;;;;;;;;;;5071424;28;20313;-61
2022/04/17 02:14:22;;;;;;;240.35;79.82;;;;;;;;;;5071686;28;20179;-61
2022/04/17 02:16:48;;;;;;;244.93;75.00;;;;;;;;;;5072084;28;20192;-61
2022/04/17 02:19:14;;;;;;;254.67;79.80;;;;;;;;;;5071507;28;20181;-61
2022/04/17 02:21:40;;;;;;;226.30;79.33;;;;;;;;;;5071423;28;20487;-61
2022/04/17 02:24:06;;;;;;;232.52;75.20;;;;;;;;;;5072100;28;20413;-61
2022/04/17 02:26:33;;;;;;;180.65;65.20;;;;;;;;;;5072054;28;20216;-61
2022/04/17 02:28:59;;;;;;;182.10;68.55;;;;;;;;;;5072082;28;20188;-61
2022/04/17 02:31:25;;;;;;;170.43;63.13;;;;;;;;;;5071790;28;20553;-61
2022/04/17 02:33:52;;;;;;;173.50;64.30;;;;;;;;;;5071916;28;20540;-61
2022/04/17 02:36:18;;;;;;;176.82;66.18;;;;;;;;;;5071819;28;20198;-61
2022/04/17 02:38:44;;;;;;;203.38;71.05;;;;;;;;;;5071919;28;20295;-61
2022/04/17 02:41:10;;;;;;;195.87;69.83;;;;;;;;;;5071488;28;20207;-61
2022/04/17 02:43:36;;;;;;;191.18;67.07;;;;;;;;;;5071834;28;20402;-61
2022/04/17 02:46:02;;;;;;;221.03;73.20;;;;;;;;;;5071557;28;20211;-61
2022/04/17 02:48:28;;;;;;;228.27;71.10;;;;;;;;;;5071724;28;20418;-59
2022/04/17 02:50:55;;;;;;;236.17;75.27;;;;;;;;;;5070419;28;20208;-61
2022/04/17 02:53:21;;;;;;;238.27;73.80;;;;;;;;;;5071808;28;20471;-61
2022/04/17 02:55:47;;;;;;;247.80;74.97;;;;;;;;;;5071518;28;20160;-61
2022/04/17 02:58:14;;;;;;;245.63;73.60;;;;;;;;;;5071714;28;20215;-61
2022/04/17 03:05:36;;;;;;;236.45;75.05;;;;;;;;;;5070886;28;20457;-61
2022/04/17 03:06:11;;;;;;;239.43;70.53;;;;;;;;;;5071223;28;20246;-61
2022/04/17 03:08:41;;;;;;;242.90;73.10;;;;;;;;;;5071595;28;20267;-60
2022/04/17 03:11:07;;;;;;;237.27;69.45;;;;;;;;;;5071303;28;20668;-60
2022/04/17 03:13:34;;;;;;;246.40;75.32;;;;;;;;;;5070971;28;20193;-58
2022/04/17 03:16:00;;;;;;;249.70;79.38;;;;;;;;;;5071270;28;20261;-58
2022/04/17 03:18:26;;;;;;;240.70;69.33;;;;;;;;;;5071396;28;20563;-58
2022/04/17 03:20:52;;;;;;;256.20;79.40;;;;;;;;;;5070222;28;20872;-60
2022/04/17 03:23:18;;;;;;;252.30;77.37;;;;;;;;;;5071218;28;20753;-59
2022/04/17 03:25:44;;;;;;;236.05;73.95;;;;;;;;;;5071113;28;20407;-60
2022/04/17 03:28:10;;;;;;;246.17;78.33;;;;;;;;;;5070157;28;20201;-59
2022/04/17 03:30:36;;;;;;;241.38;74.50;;;;;;;;;;5070671;28;20455;-59
2022/04/17 03:33:02;;;;;;;209.90;69.30;;;;;;;;;;5071157;28;20211;-60
2022/04/17 03:35:30;;;;;;;226.47;70.60;;;;;;;;;;5071376;28;20418;-59
2022/04/17 03:37:57;;;;;;;239.10;72.57;;;;;;;;;;5071117;28;20847;-59
2022/04/17 03:40:23;;;;;;;254.27;79.70;;;;;;;;;;5070969;28;20168;-60
2022/04/17 03:42:49;;;;;;;241.17;70.27;;;;;;;;;;5071082;28;20252;-60
2022/04/17 03:45:16;;;;;;;249.63;73.25;;;;;;;;;;5071310;28;20417;-60
2022/04/17 03:47:42;;;;;;;246.77;73.15;;;;;;;;;;5071258;28;20801;-60
2022/04/17 03:50:09;;;;;;;254.23;76.13;;;;;;;;;;5070862;28;20185;-58
2022/04/17 03:52:45;;;;;;;246.23;68.50;;;;;;;;;;5071040;28;20826;-60
2022/04/17 03:55:11;;;;;;;251.25;72.07;;;;;;;;;;5070988;28;20186;-60
2022/04/17 03:57:38;;;;;;;248.07;72.25;;;;;;;;;;5070963;28;20198;-60
2022/04/17 04:00:05;;;;;;;250.25;72.65;;;;;;;;;;5070681;28;20214;-59
2022/04/17 04:02:31;;;;;;;245.98;74.30;;;;;;;;;;5072106;28;20233;-60
2022/04/17 04:04:57;;;;;;;269.10;79.70;;;;;;;;;;5074851;28;20179;-60
2022/04/17 04:07:23;;;;;;;252.02;76.88;;;;;;;;;;5074418;28;20455;-60
2022/04/17 04:09:49;;;;;;;262.75;76.05;;;;;;;;;;5074418;28;20536;-60
2022/04/17 04:12:15;;;;;;;237.43;72.17;;;;;;;;;;5074382;28;20206;-60
2022/04/17 04:14:41;;;;;;;262.17;75.47;;;;;;;;;;5074497;28;20399;-60
2022/04/17 04:17:09;;;;;;;256.37;72.37;;;;;;;;;;5074505;28;20238;-60
2022/04/17 04:19:35;;;;;;;262.40;75.15;;;;;;;;;;5074632;28;20393;-60
2022/04/17 04:22:00;;;;;;;259.23;77.17;;;;;;;;;;5074008;28;20175;-60
2022/04/17 04:24:27;;;;;;;251.17;72.80;;;;;;;;;;5073163;28;20499;-60
2022/04/17 04:29:38;;;;;;;225.25;69.10;;;;;;;;;;5069688;28;20241;-60
2022/04/17 04:32:04;;;;;;;225.25;66.70;;;;;;;;;;5073101;28;20210;-60
2022/04/17 04:34:31;;;;;;;249.60;77.82;;;;;;;;;;5074296;28;20183;-60
2022/04/17 04:36:57;;;;;;;238.70;70.28;;;;;;;;;;5074076;28;20547;-60
2022/04/17 04:39:23;;;;;;;236.70;73.70;;;;;;;;;;5074318;28;20175;-59
2022/04/17 04:41:48;;;;;;;226.87;73.17;;;;;;;;;;5073846;28;20429;-58
2022/04/17 04:44:14;;;;;;;234.50;71.93;;;;;;;;;;5073826;28;20941;-59
2022/04/17 04:46:40;;;;;;;237.00;78.05;;;;;;;;;;5073575;28;20786;-60
2022/04/17 04:51:51;;;;;;;249.50;72.93;;;;;;;;;;5073149;28;20484;-62
2022/04/17 04:54:17;;;;;;;232.10;72.35;;;;;;;;;;5073938;28;20173;-62
2022/04/17 04:56:43;;;;;;;239.17;74.37;;;;;;;;;;5073836;28;20198;-62
2022/04/17 04:59:09;;;;;;;244.17;75.47;;;;;;;;;;5073880;28;20464;-62
2022/04/17 05:01:35;;;;;;;239.53;72.40;;;;;;;;;;5073510;28;20423;-61
2022/04/17 05:04:01;;;;;;;244.00;71.95;;;;;;;;;;5073753;28;20817;-62
2022/04/17 05:06:27;;;;;;;227.80;69.10;;;;;;;;;;5073556;28;20211;-62
2022/04/17 05:08:53;;;;;;;235.60;71.53;;;;;;;;;;5071330;22;20287;-65
2022/04/17 05:11:20;;;;;;;240.87;71.27;;;;;;;;;;5028945;28;21175;-64
2022/04/17 05:13:46;;;;;;;231.98;70.68;;;;;;;;;;5028235;28;20436;-64
2022/04/17 05:16:13;;;;;;;226.50;70.25;;;;;;;;;;5033553;28;20208;-64
2022/04/17 05:18:39;;;;;;;243.82;74.63;;;;;;;;;;5033615;28;20663;-64
2022/04/17 05:21:06;;;;;;;224.50;69.87;;;;;;;;;;5033015;28;20177;-64
2022/04/17 05:23:32;;;;;;;235.02;69.07;;;;;;;;;;5033083;28;20409;-64
2022/04/17 05:26:00;;;;;;;243.98;71.45;;;;;;;;;;5033125;28;20180;-64
2022/04/17 05:28:26;;;;;;;233.25;67.85;;;;;;;;;;5033189;28;20197;-64
2022/04/17 05:30:52;;;;;;;236.95;69.18;;;;;;;;;;5032983;28;20189;-64
2022/04/17 05:33:18;;;;;;;229.93;71.55;;;;;;;;;;5033348;28;20748;-64
2022/04/17 05:35:45;;;;;;;250.43;71.50;;;;;;;;;;5033382;28;20213;-64
2022/04/17 05:38:11;;;;;;;248.57;72.75;;;;;;;;;;5033143;28;20197;-64
2022/04/17 05:40:57;;;;;;;245.10;69.82;;;;;;;;;;5032900;28;20190;-64
2022/04/17 05:43:24;;;;;;;256.15;75.32;;;;;;;;;;5024273;28;20189;-64
2022/04/17 05:45:50;;;;;;;251.80;74.55;;;;;;;;;;5018867;28;20179;-64
2022/04/17 05:48:16;;;;;;;254.73;75.03;;;;;;;;;;5024791;28;20202;-64
2022/04/17 05:50:42;;;;;;;248.30;69.67;;;;;;;;;;5024167;28;20168;-64
2022/04/17 05:53:08;;;;;;;254.50;73.60;;;;;;;;;;5033045;28;20484;-64
2022/04/17 05:55:38;;;;;;;227.07;68.45;;;;;;;;;;5032650;28;20404;-64
2022/04/17 05:58:04;;;;;;;261.88;77.00;;;;;;;;;;5032709;28;20214;-64
2022/04/17 06:00:30;;;;;;;253.77;73.28;;;;;;;;;;5032270;28;20204;-64
2022/04/17 06:02:56;;;;;;;246.00;65.38;;;;;;;;;;5032734;28;20169;-64
2022/04/17 06:05:22;;;;;;;253.17;70.30;;;;;;;;;;5032707;28;20170;-64
2022/04/17 06:07:48;;;;;;;256.92;75.07;;;;;;;;;;5019396;28;20423;-66
2022/04/17 06:10:14;;;;;;;252.53;74.67;;;;;;;;;;5022256;28;20201;-64
2022/04/17 06:12:41;;;;;;;249.05;72.05;;;;;;;;;;5019347;28;20481;-64
2022/04/17 06:15:08;;;;;;;247.05;74.90;;;;;;;;;;5011746;28;20242;-65
2022/04/17 06:17:38;;;;;;;257.67;76.13;;;;;;;;;;5010705;28;20213;-64
2022/04/17 06:20:07;;;;;;;272.35;78.05;;;;;;;;;;5011068;28;20203;-64
2022/04/17 06:22:35;;;;;;;261.23;74.60;;;;;;;;;;5009631;28;20261;-64
2022/04/17 06:25:01;;;;;;;260.10;77.15;;;;;;;;;;5008847;28;20185;-64
2022/04/17 06:27:35;;;;;;;257.50;72.95;;;;;;;;;;5009735;28;20290;-64
2022/04/17 06:30:05;;;;;;;258.20;77.88;;;;;;;;;;4986228;28;20200;-64
2022/04/17 06:32:33;;;;;;;256.67;81.43;;;;;;;;;;5006890;28;20233;-63
2022/04/17 06:34:59;;;;;;;234.63;70.88;;;;;;;;;;5014709;28;20179;-64
2022/04/17 06:37:25;;;;;;;233.70;73.30;;;;;;;;;;5020302;28;20813;-64
2022/04/17 06:39:51;;;;;;;237.27;73.75;;;;;;;;;;5018820;28;20533;-64
2022/04/17 06:42:17;;;;;;;222.57;71.53;;;;;;;;;;5025368;28;20182;-64
2022/04/17 06:44:42;;;;;;;225.70;73.57;;;;;;;;;;5028285;28;20856;-64
2022/04/17 06:47:08;;;;;;;229.37;72.13;;;;;;;;;;5032051;28;20433;-64
2022/04/17 06:49:34;;;;;;;230.97;74.40;;;;;;;;;;5031742;28;20429;-64
2022/04/17 06:52:00;;;;;;;241.63;78.27;;;;;;;;;;5031546;28;20457;-62
2022/04/17 06:54:26;;;;;;;238.90;76.10;;;;;;;;;;5032049;28;20470;-62
2022/04/17 06:56:52;;;;;;;251.13;81.27;;;;;;;;;;5005980;28;20180;-62
2022/04/17 06:59:18;;;;;;;278.38;86.85;;;;;;;;;;5002016;28;20462;-62
2022/04/17 07:01:44;;;;;;;287.27;86.13;;;;;;;;;;5000450;28;20185;-65
2022/04/17 07:04:10;;;;;;;295.15;90.85;;;;;;;;;;4999916;28;20428;-62
2022/04/17 07:06:36;;;;;;;294.70;95.33;;;;;;;;;;5001857;28;20181;-62
2022/04/17 07:09:02;;;;;;;297.95;89.82;;;;;;;;;;5000018;28;20463;-62
2022/04/17 07:11:29;;;;;;;301.67;92.07;;;;;;;;;;5001786;28;20579;-62
2022/04/17 07:13:55;;;;;;;282.52;94.10;;;;;;;;;;5011334;28;20438;-62
2022/04/17 07:16:21;;;;;;;305.20;95.38;;;;;;;;;;5006543;28;20565;-63
2022/04/17 07:18:47;;;;;;;318.10;102.00;;;;;;;;;;5007559;28;20247;-66
2022/04/17 07:21:13;;;;;;;316.60;100.60;;;;;;;;;;5023605;28;20191;-63
2022/04/17 07:23:39;;;;;;;312.73;90.70;;;;;;;;;;5031481;28;20172;-63
2022/04/17 07:26:05;;;;;;;314.27;98.97;;;;;;;;;;5031446;28;20406;-63
2022/04/17 07:28:31;;;;;;;326.15;101.47;;;;;;;;;;5030913;28;20938;-63
2022/04/17 07:30:57;;;;;;;324.45;101.63;;;;;;;;;;5030994;28;20203;-63
2022/04/17 07:33:23;;;;;;;326.27;103.17;;;;;;;;;;5012917;28;20189;-63
2022/04/17 07:35:49;;;;;;;330.83;102.00;;;;;;;;;;5011548;28;20409;-62
2022/04/17 07:38:15;;;;;;;333.43;100.93;;;;;;;;;;5014181;28;20463;-63
2022/04/17 07:40:41;;;;;;;329.40;102.77;;;;;;;;;;5014837;28;20416;-62
2022/04/17 07:43:07;;;;;;;338.85;106.78;;;;;;;;;;5015291;28;20412;-62
2022/04/17 07:45:34;;;;;;;338.47;109.60;;;;;;;;;;5009497;28;20522;-64
2022/04/17 07:48:00;;;;;;;339.20;106.40;;;;;;;;;;5017236;28;20416;-62
2022/04/17 07:50:31;;;;;;;342.73;111.57;;;;;;;;;;5027755;28;20177;-63
2022/04/17 07:52:57;;;;;;;346.20;115.70;;;;;;;;;;5032985;28;20255;-62
2022/04/17 07:55:23;;;;;;;354.92;120.30;;;;;;;;;;5034913;28;20575;-62
2022/04/17 07:58:12;;;;;;;351.35;118.85;;;;;;;;;;5035046;28;20231;-62
2022/04/17 08:00:46;;;;;;;359.00;125.85;;;;;;;;;;5034569;28;20165;-62
2022/04/17 08:06:12;;;;;;;351.63;130.40;;;;;;;;;;4992345;28;20197;-63
2022/04/17 08:08:39;;;;;;;358.00;137.57;;;;;;;;;;5014827;28;20201;-63
2022/04/17 08:11:06;;;;;;;384.20;158.80;;;;;;;;;;5014431;28;20569;-63
2022/04/17 08:13:32;;;;;;;416.58;197.02;;;;;;;;;;5014785;28;20189;-63
2022/04/17 08:15:59;;;;;;;447.90;243.40;;;;;;;;;;5014906;28;20224;-64
2022/04/17 08:18:25;;;;;;;479.77;328.30;;;;;;;;;;5010992;28;20616;-64
2022/04/17 08:20:51;;;;;;;493.33;404.77;;;;;;;;;;5012327;28;20429;-64
2022/04/17 08:23:17;;;;;;;551.20;493.63;;;;;;;;;;5008191;28;20428;-62
2022/04/17 08:25:43;;;;;;;602.10;543.90;;;;;;;;;;5000873;28;20428;-62
2022/04/17 08:28:09;;;;;;;630.00;571.23;;;;;;;;;;5001609;28;21027;-62
2022/04/17 08:30:35;;;;;;;709.00;648.60;;;;;;;;;;5002729;28;20412;-64
2022/04/17 08:33:02;;;;;;;735.73;674.63;;;;;;;;;;5001221;28;20480;-62
2022/04/17 08:35:28;;;;;;;752.50;691.30;;;;;;;;;;5002232;28;20444;-62
2022/04/17 08:37:57;;;;;;;719.83;659.53;;;;;;;;;;5004473;28;20461;-63
2022/04/17 08:40:26;;;;;;;764.80;703.20;;;;;;;;;;5002885;28;20463;-63
2022/04/17 08:42:53;;;;;;;758.50;697.10;;;;;;;;;;5003461;28;20835;-62
2022/04/17 08:45:19;;;;;;;775.67;714.00;;;;;;;;;;5004174;28;20413;-63
2022/04/17 08:47:45;;;;;;;794.87;732.50;;;;;;;;;;5003043;28;20539;-63
2022/04/17 08:50:11;;;;;;;823.27;759.47;;;;;;;;;;5007873;28;20472;-63
2022/04/17 08:52:41;;;;;;;859.30;797.10;;;;;;;;;;5009078;28;20909;-64
2022/04/17 08:55:07;;;;;;;867.80;805.60;;;;;;;;;;5010627;28;20435;-63
2022/04/17 08:57:33;;;;;;;868.20;805.90;;;;;;;;;;5007289;28;20424;-63
2022/04/17 08:59:59;;;;;;;841.90;780.70;;;;;;;;;;5011725;28;20975;-63
2022/04/17 09:02:25;;;;;;;837.67;777.03;;;;;;;;;;5007667;28;20431;-62
2022/04/17 09:04:51;;;;;;;838.53;777.07;;;;;;;;;;4991572;28;20421;-64
2022/04/17 09:07:18;;;;;;;846.00;784.50;;;;;;;;;;5005979;28;20421;-63
2022/04/17 09:09:51;;;;;;;828.43;767.53;;;;;;;;;;5009267;28;20453;-63
2022/04/17 09:12:24;;;;;;;839.93;777.63;;;;;;;;;;5003820;28;20464;-64
2022/04/17 09:14:50;;;;;;;844.27;781.37;;;;;;;;;;5003791;28;20914;-64
2022/04/17 09:17:16;;;;;;;829.80;767.07;;;;;;;;;;5002660;28;20426;-64
2022/04/17 09:19:43;;;;;;;832.57;769.77;;;;;;;;;;5011448;28;20429;-65
2022/04/17 09:22:09;;;;;;;858.50;795.00;;;;;;;;;;5021482;28;20892;-64
2022/04/17 09:24:39;;;;;;;855.97;792.47;;;;;;;;;;5007966;28;20503;-63
2022/04/17 09:27:05;;;;;;;832.83;770.03;;;;;;;;;;5013296;28;20428;-62
2022/04/17 09:29:38;;;;;;;834.97;772.03;;;;;;;;;;5013488;28;20432;-64
2022/04/17 09:32:08;;;;;;;859.80;796.47;;;;;;;;;;5001336;28;20461;-64
2022/04/17 09:34:44;;;;;;;881.63;817.43;;;;;;;;;;5001496;28;20424;-64
2022/04/17 09:37:22;;;;;;;909.73;844.53;;;;;;;;;;5000771;28;21061;-64
2022/04/17 09:39:50;;;;;;;919.00;853.70;;;;;;;;;;5006947;28;20794;-64
2022/04/17 09:42:26;;;;;;;920.83;855.33;;;;;;;;;;5009140;28;20419;-64
2022/04/17 09:44:57;;;;;;;900.60;835.63;;;;;;;;;;5004593;28;20418;-63
2022/04/17 09:47:24;;;;;;;892.87;828.10;;;;;;;;;;5011366;28;20418;-64
2022/04/17 09:49:53;;;;;;;914.17;849.00;;;;;;;;;;5005600;28;20440;-64
2022/04/17 09:52:20;;;;;;;933.77;868.07;;;;;;;;;;5002800;28;20460;-64
2022/04/17 09:54:47;;;;;;;902.63;837.60;;;;;;;;;;5014790;28;20427;-64
2022/04/17 09:57:18;;;;;;;897.40;832.60;;;;;;;;;;5015706;28;20422;-65
2022/04/17 09:59:44;;;;;;;869.60;805.73;;;;;;;;;;5021091;28;20463;-64
2022/04/17 10:02:12;;;;;;;877.03;812.77;;;;;;;;;;5024368;28;20422;-64
2022/04/17 10:04:39;;;;;;;877.23;813.07;;;;;;;;;;5032732;28;20434;-64
2022/04/17 10:07:05;;;;;;;913.00;847.70;;;;;;;;;;5012771;28;21000;-64
2022/04/17 10:09:32;;;;;;;910.20;844.90;;;;;;;;;;5018994;28;20455;-64
2022/04/17 10:12:00;;;;;;;917.23;851.77;;;;;;;;;;5028348;28;20804;-64
2022/04/17 10:14:28;;;;;;;913.97;848.70;;;;;;;;;;5021384;28;20429;-64
2022/04/17 10:16:55;;;;;;;906.93;841.97;;;;;;;;;;5012176;28;20420;-63
2022/04/17 10:19:24;;;;;;;900.43;835.87;;;;;;;;;;5019909;28;20846;-64
2022/04/17 10:21:50;;;;;;;913.83;848.73;;;;;;;;;;5026189;28;20419;-64
2022/04/17 10:24:17;;;;;;;909.80;844.90;;;;;;;;;;5025084;28;20438;-64
2022/04/17 10:26:47;;;;;;;898.73;834.07;;;;;;;;;;5032272;28;20406;-64
2022/04/17 10:29:17;;;;;;;939.00;873.00;;;;;;;;;;5010453;28;20444;-64
2022/04/17 10:31:49;;;;;;;942.90;876.73;;;;;;;;;;5004787;28;20466;-64
2022/04/17 10:34:32;;;;;;;926.97;861.30;;;;;;;;;;5000799;28;20409;-64
2022/04/17 10:37:17;;;;;;;913.97;848.63;;;;;;;;;;5001429;28;20487;-64
2022/04/17 10:39:47;;;;;;;920.20;854.80;;;;;;;;;;5001604;28;20424;-64
2022/04/17 10:42:13;;;;;;;905.60;840.53;;;;;;;;;;5000195;28;20422;-64
2022/04/17 10:44:42;;;;;;;919.33;853.93;;;;;;;;;;5003035;28;20416;-64
2022/04/17 10:47:21;;;;;;;921.17;855.70;;;;;;;;;;5000026;28;20930;-63
2022/04/17 10:49:54;;;;;;;910.40;845.57;;;;;;;;;;4983138;28;20424;-64
2022/04/17 10:52:31;;;;;;;923.03;857.67;;;;;;;;;;5000808;28;21334;-63
2022/04/17 10:55:07;;;;;;;913.50;848.50;;;;;;;;;;5003332;28;20474;-62
2022/04/17 10:57:42;;;;;;;888.63;824.30;;;;;;;;;;5007034;28;20414;-64
2022/04/17 11:00:28;;;;;;;914.03;849.00;;;;;;;;;;4989110;28;20410;-63
2022/04/17 11:02:54;;;;;;;908.90;843.90;;;;;;;;;;5000978;28;20412;-64
2022/04/17 11:06:08;;;;;;;890.80;826.33;;;;;;;;;;5000155;28;20854;-63
2022/04/17 11:08:22;;;;;;;874.23;810.03;;;;;;;;;;5001451;28;20468;-63
2022/04/17 11:10:52;;;;;;;851.80;788.10;;;;;;;;;;4999160;28;20459;-63
2022/04/17 11:13:18;;;;;;;827.90;765.00;;;;;;;;;;5000682;28;20420;-63
2022/04/17 11:15:49;;;;;;;802.93;740.87;;;;;;;;;;5002575;28;20412;-64
2022/04/17 11:18:20;;;;;;;805.23;743.23;;;;;;;;;;4998945;28;20970;-63
2022/04/17 11:20:52;;;;;;;803.63;741.13;;;;;;;;;;4985135;28;20412;-63
2022/04/17 11:23:36;;;;;;;805.60;743.37;;;;;;;;;;5001883;28;20912;-64
2022/04/17 11:26:02;;;;;;;788.67;726.77;;;;;;;;;;4996026;28;20505;-63
2022/04/17 11:28:35;;;;;;;788.30;726.23;;;;;;;;;;4992703;28;20433;-63
2022/04/17 11:31:01;;;;;;;804.37;741.97;;;;;;;;;;5000979;28;20497;-63
2022/04/17 11:33:27;;;;;;;792.93;730.83;;;;;;;;;;4992391;28;20437;-63
2022/04/17 11:35:54;;;;;;;785.23;723.13;;;;;;;;;;4992207;28;20495;-63
2022/04/17 11:38:20;;;;;;;772.40;711.10;;;;;;;;;;4992212;28;20461;-63
2022/04/17 11:40:48;;;;;;;789.17;727.03;;;;;;;;;;4999375;28;20412;-63
2022/04/17 11:43:15;;;;;;;753.03;691.73;;;;;;;;;;4995266;28;20719;-63
2022/04/17 11:45:42;;;;;;;753.70;692.17;;;;;;;;;;5000532;28;20473;-63
2022/04/17 11:48:09;;;;;;;736.53;675.40;;;;;;;;;;5009238;28;20445;-63
2022/04/17 11:50:36;;;;;;;726.93;666.63;;;;;;;;;;4988588;28;20419;-63
2022/04/17 11:53:07;;;;;;;738.30;677.30;;;;;;;;;;4994100;28;20458;-63
2022/04/17 11:55:34;;;;;;;725.27;664.37;;;;;;;;;;5006223;28;20478;-63
2022/04/17 11:58:00;;;;;;;720.67;660.00;;;;;;;;;;5002617;28;20511;-63
2022/04/17 12:00:27;;;;;;;662.00;602.63;;;;;;;;;;4985362;28;20444;-63
2022/04/17 12:03:01;;;;;;;652.37;594.77;;;;;;;;;;5002486;28;20435;-62
2022/04/17 12:05:28;;;;;;;637.20;580.00;;;;;;;;;;4986138;28;20495;-63
2022/04/17 12:07:58;;;;;;;635.30;577.83;;;;;;;;;;5003095;28;20405;-64
2022/04/17 12:10:25;;;;;;;590.07;534.37;;;;;;;;;;4985004;28;20418;-64
2022/04/17 12:12:51;;;;;;;594.47;535.93;;;;;;;;;;5002846;28;20464;-64
2022/04/17 12:18:00;;;;;;;541.33;483.83;;;;;;;;;;5028540;28;20494;-62
2022/04/17 12:20:26;;;;;;;515.47;458.67;;;;;;;;;;5030605;28;20407;-62
2022/04/17 12:22:53;;;;;;;526.13;469.00;;;;;;;;;;5031082;28;20414;-61
2022/04/17 12:25:25;;;;;;;527.87;470.57;;;;;;;;;;5034131;28;20843;-61
2022/04/17 12:27:51;;;;;;;509.67;442.90;;;;;;;;;;5011953;28;20505;-62
2022/04/17 12:30:19;;;;;;;505.40;426.35;;;;;;;;;;5007033;28;20174;-62
2022/04/17 12:32:45;;;;;;;504.03;412.97;;;;;;;;;;5012263;28;20225;-62
2022/04/17 12:35:14;;;;;;;503.35;403.45;;;;;;;;;;5003812;28;20424;-63
2022/04/17 12:37:41;;;;;;;503.48;405.55;;;;;;;;;;5004078;28;20229;-61
2022/04/17 12:40:14;;;;;;;497.70;381.90;;;;;;;;;;5006772;28;20570;-61
2022/04/17 12:42:41;;;;;;;500.83;384.77;;;;;;;;;;5001821;28;20249;-60
2022/04/17 12:45:08;;;;;;;497.85;376.23;;;;;;;;;;4999644;28;20190;-61
2022/04/17 12:47:36;;;;;;;497.60;373.85;;;;;;;;;;5003935;28;20198;-62
2022/04/17 12:50:07;;;;;;;497.23;368.55;;;;;;;;;;5002033;28;20553;-59
2022/04/17 12:52:33;;;;;;;494.38;358.27;;;;;;;;;;5004839;28;20197;-61
2022/04/17 12:55:09;;;;;;;465.08;341.02;;;;;;;;;;4996642;28;20224;-60
2022/04/17 12:57:35;;;;;;;472.80;357.37;;;;;;;;;;5007873;28;20287;-63
2022/04/17 13:00:01;;;;;;;435.90;346.07;;;;;;;;;;5012978;28;20400;-59
2022/04/17 13:02:28;;;;;;;475.13;363.07;;;;;;;;;;5007613;28;20412;-61
2022/04/17 13:04:55;;;;;;;474.58;362.98;;;;;;;;;;5013091;28;20440;-62
2022/04/17 13:07:21;;;;;;;456.45;332.48;;;;;;;;;;5009307;28;20569;-61
2022/04/17 13:09:50;;;;;;;462.97;344.77;;;;;;;;;;5002967;28;20174;-61
2022/04/17 13:12:36;;;;;;;462.55;343.88;;;;;;;;;;5001474;28;20507;-63
2022/04/17 13:15:06;;;;;;;467.05;336.25;;;;;;;;;;5005413;28;20713;-63
2022/04/17 13:17:43;;;;;;;467.00;347.70;;;;;;;;;;5005653;28;20295;-61
2022/04/17 13:20:09;;;;;;;475.47;348.70;;;;;;;;;;5004571;28;20417;-59
2022/04/17 13:22:35;;;;;;;481.85;349.98;;;;;;;;;;5010000;28;20422;-62
2022/04/17 13:25:03;;;;;;;482.43;339.30;;;;;;;;;;4995834;28;20178;-63
2022/04/17 13:27:29;;;;;;;480.42;334.55;;;;;;;;;;5012455;28;20460;-62
2022/04/17 13:29:55;;;;;;;482.07;347.50;;;;;;;;;;5003206;28;20210;-62
2022/04/17 13:32:21;;;;;;;453.80;340.10;;;;;;;;;;5006567;28;20468;-62
2022/04/17 13:34:47;;;;;;;470.50;312.20;;;;;;;;;;5009926;28;20413;-62
2022/04/17 13:39:57;;;;;;;486.53;350.77;;;;;;;;;;5008315;28;20487;-62
2022/04/17 13:42:23;;;;;;;485.33;343.70;;;;;;;;;;5004129;28;20902;-62
2022/04/17 13:44:49;;;;;;;484.92;349.35;;;;;;;;;;5009502;28;20412;-62
2022/04/17 13:47:15;;;;;;;488.23;363.00;;;;;;;;;;5009531;28;20205;-62
2022/04/17 13:49:41;;;;;;;484.10;339.67;;;;;;;;;;5011181;28;20892;-61
2022/04/17 13:52:08;;;;;;;455.85;350.27;;;;;;;;;;5010851;28;20554;-62
2022/04/17 13:54:34;;;;;;;412.13;326.53;;;;;;;;;;5009873;28;20715;-61
2022/04/17 13:57:00;;;;;;;410.23;338.80;;;;;;;;;;5010100;28;20535;-61
2022/04/17 13:59:27;;;;;;;388.73;330.97;;;;;;;;;;5011042;28;20943;-62
2022/04/17 14:01:53;;;;;;;406.50;323.83;;;;;;;;;;5009525;28;20502;-61
2022/04/17 14:04:19;;;;;;;408.80;330.83;;;;;;;;;;5007404;28;20264;-62
2022/04/17 14:06:45;;;;;;;408.23;327.83;;;;;;;;;;5007402;28;20533;-62
2022/04/17 14:09:11;;;;;;;399.90;321.57;;;;;;;;;;5002506;28;20416;-62
2022/04/17 14:11:37;;;;;;;405.20;325.25;;;;;;;;;;5006348;28;20452;-61
2022/04/17 14:14:03;;;;;;;404.30;324.80;;;;;;;;;;5005601;28;20654;-62
2022/04/17 14:16:29;;;;;;;396.10;304.88;;;;;;;;;;5002626;28;20444;-62
2022/04/17 14:18:55;;;;;;;412.30;303.80;;;;;;;;;;5000875;28;20178;-62
2022/04/17 14:21:21;;;;;;;408.57;301.07;;;;;;;;;;5001195;28;20444;-61